Currently 61°F in French Valley, California, USA
61°F
61°F / 50°F
calm
0.00"
Saturday, April 17, 2021 10:22 AM PDT

French Valley, California Weather Summary
Last 36 Hours

Temperature Winds Hourly Humidity Dewpoint
Time Report Norm Report Norm Max Gusts Precip. Rpt. Norm Rpt. Norm Pressure
1,2Sat 10:22 AM  61.3°F  65°F  calm  3 mph  none  0.00"  77%  59%  54°F  49°F  30.05"
Sat 10:00 AM  58.7°F  63°F  calm  3 mph  none  0.00"  81%  63%  53°F  50°F  30.05"
Sat 09:00 AM  52.8°F  59°F  calm  2 mph  none  0.00"  96%  73%  52°F  50°F  30.05"
Sat 08:00 AM  50.8°F  55°F  calm  2 mph  none  0.00"  97%  82%  50°F  49°F  30.05"
3Sat 07:46 AM  50.4°F  54°F  calm  2 mph  none  ----  96%  84%  49°F  49°F  30.05"
Sat 07:00 AM  50.9°F  51°F  calm  1 mph  none  0.00"  96%  86%  50°F  47°F  30.05"
Sat 06:00 AM  50.5°F  51°F  calm  1 mph  none  0.00"  97%  86%  50°F  47°F  30.05"
Sat 05:00 AM  51.0°F  51°F  calm  1 mph  none  0.00"  97%  86%  50°F  47°F  30.05"
Sat 04:00 AM  51.1°F  52°F  calm  1 mph  none  0.00"  98%  85%  50°F  48°F  30.04"
Sat 03:00 AM  51.4°F  53°F  calm  1 mph  none  0.00"  98%  85%  51°F  48°F  30.05"
Sat 02:00 AM  51.9°F  53°F  calm  1 mph  none  0.00"  99%  85%  52°F  49°F  30.06"
Sat 01:00 AM  51.8°F  54°F  calm  1 mph  none  0.00"  99%  83%  51°F  49°F  30.08"
Sat 12:00 AM  51.2°F  55°F  calm  2 mph  none  0.00"  98%  82%  51°F  50°F  30.07"
Fri 11:00 PM  53.0°F  56°F  calm  2 mph  none  0.00"  96%  81%  52°F  50°F  30.06"
Fri 10:00 PM  54.8°F  57°F  calm  2 mph  none  0.00"  93%  79%  53°F  51°F  30.05"
Fri 09:00 PM  56.2°F  59°F  calm  3 mph  none  0.00"  90%  75%  53°F  51°F  30.04"
Fri 08:00 PM  59.3°F  61°F  calm  4 mph  none  0.00"  79%  70%  53°F  51°F  30.01"
Fri 07:00 PM  63.0°F  65°F  calm  6 mph  none  0.00"  69%  62%  52°F  51°F  29.99"
Fri 06:00 PM  67.6°F  68°F  calm  7 mph  none  0.00"  53%  54%  49°F  50°F  29.98"
Fri 05:00 PM  69.4°F  70°F  calm  8 mph  none  0.00"  47%  49%  47°F  50°F  29.97"
Fri 04:00 PM  70.5°F  72°F  calm  8 mph  none  0.00"  47%  46%  48°F  49°F  29.98"
Fri 03:00 PM  70.8°F  73°F  calm  7 mph  none  0.00"  47%  44%  49°F  49°F  29.99"
Fri 02:00 PM  70.5°F  72°F  calm  6 mph  none  0.00"  52%  44%  52°F  48°F  30.00"
Fri 01:00 PM  70.1°F  71°F  calm  5 mph  none  0.00"  54%  45%  52°F  48°F  30.02"
Fri 12:00 PM  68.7°F  69°F  calm  4 mph  none  0.00"  51%  47%  49°F  48°F  30.03"
Fri 11:00 AM  65.3°F  66°F  calm  4 mph  none  0.00"  58%  54%  50°F  49°F  30.05"
Fri 10:00 AM  61.5°F  63°F  calm  3 mph  none  0.00"  74%  63%  53°F  49°F  30.06"
Fri 09:00 AM  56.2°F  59°F  calm  2 mph  none  0.00"  88%  73%  53°F  50°F  30.06"
Fri 08:00 AM  50.6°F  54°F  calm  2 mph  none  0.00"  97%  82%  50°F  49°F  30.06"
Fri 07:00 AM  46.6°F  51°F  calm  1 mph  none  0.00"  98%  86%  46°F  47°F  30.05"
Fri 06:00 AM  47.1°F  51°F  calm  1 mph  none  0.00"  98%  86%  46°F  46°F  30.03"
Fri 05:00 AM  46.8°F  51°F  calm  1 mph  none  0.00"  97%  85%  46°F  47°F  30.04"
Fri 04:00 AM  47.5°F  52°F  calm  1 mph  none  0.00"  97%  85%  47°F  47°F  30.05"
Fri 03:00 AM  48.0°F  53°F  calm  1 mph  none  0.00"  97%  84%  47°F  48°F  30.05"
Fri 02:00 AM  49.5°F  53°F  calm  1 mph  none  0.00"  96%  84%  48°F  48°F  30.07"
Fri 01:00 AM  49.6°F  54°F  calm  1 mph  none  0.00"  96%  83%  48°F  49°F  30.08"
Fri 12:00 AM  50.7°F  55°F  calm  2 mph  none  0.00"  95%  82%  49°F  49°F  30.09"
Thu 11:00 PM  52.3°F  56°F  calm  2 mph  none  0.00"  95%  81%  51°F  50°F  30.10"

  1. Current weather data. No green row appears if the current weather data is also the high or low for the current day.
  2. High temperature for the current day.
  3. Low temperature for the current day.

The French Valley, California weather pages are a service of WeatherCurrents. French Valley is located in southwestern Riverside County, California, north of Temecula, east of Murrieta, and south of Winchester. French Valley is bordered by Lake Skinner.
Copyright ©2021  WeatherCurrents. All rights reserved. - Submit questions and comments - Privacy Policy

This page automatically refreshes every 10 minutes.